This is the latest recevied weather packets stored in our database for station/object WV6L-13. If no packets are shown the sender has not sent any weather packets the latest 1 day(s).
| Time | Temp. | Humidity | Pressure | Rain* | Wind** | Luminosity | Snow |
|---|---|---|---|---|---|---|---|
| 1778007293 | 17.22° C | 38% | 923.4 hPa | - | 2.24 m/s, 168° | - | - |
| 1778006993 | 16.67° C | 38% | 923.4 hPa | - | 1.79 m/s, 277° | - | - |
| 1778006693 | 17.78° C | 38% | 923.3 hPa | - | 1.79 m/s, 324° | - | - |
| 1778006093 | 17.22° C | 38% | 923.5 hPa | - | 1.79 m/s, 298° | - | - |
| 1778005793 | 17.22° C | 38% | 923.5 hPa | - | 4.47 m/s, 76° | - | - |
| 1778005493 | 17.78° C | 37% | 923.4 hPa | - | 3.58 m/s, 171° | - | - |
| 1778005193 | 17.22° C | 39% | 923.6 hPa | - | 1.79 m/s, 69° | - | - |
| 1778004893 | 17.22° C | 38% | 923.5 hPa | - | 1.79 m/s, 63° | - | - |
| 1778004293 | 17.22° C | 39% | 923.6 hPa | - | 3.13 m/s, 152° | - | - |
| 1778003992 | 17.78° C | 39% | 923.5 hPa | - | 2.68 m/s, 123° | - | - |
| 1778003693 | 16.67° C | 41% | 923.6 hPa | - | 1.79 m/s, 171° | - | - |
| 1778003393 | 16.11° C | 42% | 923.6 hPa | - | 2.24 m/s, 78° | - | - |
| 1778003093 | 15.56° C | 43% | 923.4 hPa | - | 1.79 m/s, 100° | - | - |
| 1778002793 | 15.56° C | 44% | 923.7 hPa | - | 1.79 m/s, 352° | - | - |
| 1778002493 | 15.56° C | 45% | 923.6 hPa | - | 2.24 m/s, 355° | - | - |
| 1778002192 | 15.56° C | 45% | 923.5 hPa | - | 0.89 m/s, 305° | - | - |
| 1778001893 | 15° C | 46% | 923.8 hPa | - | 2.24 m/s, 266° | - | - |
| 1778001593 | 15.56° C | 46% | 923.6 hPa | - | 2.68 m/s, 205° | - | - |
| 1778001293 | 15° C | 45% | 923.7 hPa | - | 0.89 m/s, 101° | - | - |
| 1778000992 | 14.44° C | 48% | 923.6 hPa | - | 3.13 m/s, 314° | - | - |
| 1778000693 | 14.44° C | 48% | 923.6 hPa | - | 1.79 m/s, 276° | - | - |
| 1778000393 | 15° C | 46% | 923.6 hPa | - | 0.89 m/s, 183° | - | - |
| 1778000092 | 14.44° C | 48% | 923.6 hPa | - | 1.79 m/s, 219° | - | - |
| 1777999793 | 15° C | 47% | 923.5 hPa | - | 2.68 m/s, 317° | - | - |
| 1777999493 | 14.44° C | 47% | 923.6 hPa | - | 0.89 m/s, 103° | - | - |
* Rain since midnight (hover to see other rain measurements)
** Current wind speed in m/s (hover to see current wind gust speed)